createdAt,value
2022-12-25T00:01:48.405Z,86.27
2022-12-25T00:04:24.684Z,86.26
2022-12-25T00:07:00.965Z,86.23
2022-12-25T00:09:39.223Z,86.20
2022-12-25T00:12:15.597Z,86.18
2022-12-25T00:14:51.886Z,86.11
2022-12-25T00:17:28.434Z,86.12
2022-12-25T00:20:05.307Z,86.13
2022-12-25T00:22:41.708Z,86.14
2022-12-25T00:25:18.001Z,86.16
2022-12-25T00:27:54.412Z,86.21
2022-12-25T00:30:30.775Z,86.26
2022-12-25T00:33:07.237Z,86.33
2022-12-25T00:35:43.721Z,86.41
2022-12-25T00:38:20.072Z,86.48
2022-12-25T00:40:56.379Z,86.51
2022-12-25T00:43:33.037Z,86.51
2022-12-25T00:46:13.371Z,86.49
2022-12-25T00:48:49.941Z,86.51
2022-12-25T00:51:26.177Z,86.54
2022-12-25T00:54:02.789Z,86.57
2022-12-25T00:56:40.216Z,86.56
2022-12-25T00:59:17.565Z,86.57
2022-12-25T01:01:53.936Z,86.57
2022-12-25T01:04:30.494Z,86.67
2022-12-25T01:07:06.750Z,86.71
2022-12-25T01:10:01.554Z,86.70
2022-12-25T01:12:40.787Z,86.75
2022-12-25T01:15:18.576Z,86.82
2022-12-25T01:17:54.838Z,86.93
2022-12-25T01:20:31.133Z,87.04
2022-12-25T01:23:07.720Z,87.10
2022-12-25T01:25:44.444Z,87.12
2022-12-25T01:28:21.354Z,87.10
2022-12-25T01:30:57.607Z,87.15
2022-12-25T01:33:34.360Z,87.28
2022-12-25T01:36:22.292Z,87.33
2022-12-25T01:39:00.221Z,87.41
2022-12-25T01:41:36.668Z,87.43
2022-12-25T01:45:17.254Z,87.44
2022-12-25T01:47:53.653Z,87.43
2022-12-25T01:50:30.617Z,87.49
2022-12-25T01:53:08.188Z,87.51
2022-12-25T01:55:48.824Z,87.55
2022-12-25T01:58:26.379Z,87.61
2022-12-25T02:01:05.796Z,87.69
2022-12-25T02:03:42.988Z,87.72
2022-12-25T02:06:19.382Z,87.74
2022-12-25T02:08:56.284Z,87.72
2022-12-25T02:11:50.118Z,87.75
2022-12-25T02:14:27.093Z,87.77
2022-12-25T02:17:17.353Z,87.84
2022-12-25T02:20:37.032Z,87.89
2022-12-25T02:24:12.203Z,87.88
2022-12-25T02:27:08.509Z,87.83
2022-12-25T02:29:59.632Z,87.99
2022-12-25T02:32:46.281Z,88.06
2022-12-25T02:35:32.551Z,88.02
2022-12-25T02:38:18.716Z,88.09
2022-12-25T02:41:03.096Z,88.15
2022-12-25T02:44:03.083Z,88.23
2022-12-25T02:46:57.679Z,88.35
2022-12-25T02:49:53.707Z,88.47
2022-12-25T02:52:50.258Z,88.52
2022-12-25T02:55:52.549Z,88.58
2022-12-25T02:58:48.743Z,88.59
2022-12-25T03:01:51.873Z,88.59
2022-12-25T03:04:48.550Z,88.64
2022-12-25T03:07:27.743Z,88.68
2022-12-25T03:10:28.964Z,88.75
2022-12-25T03:13:16.210Z,88.62
2022-12-25T03:16:12.167Z,88.66
2022-12-25T03:18:49.541Z,88.70
2022-12-25T03:21:55.013Z,88.69
2022-12-25T03:24:49.093Z,88.68
2022-12-25T03:27:26.357Z,88.61
2022-12-25T03:30:20.562Z,88.59
2022-12-25T03:33:43.214Z,88.56
2022-12-25T03:36:22.459Z,88.54
2022-12-25T03:39:29.575Z,88.59
2022-12-25T03:42:25.683Z,88.62
2022-12-25T03:45:32.847Z,88.73
2022-12-25T03:48:29.788Z,88.83
2022-12-25T03:51:32.566Z,88.89
2022-12-25T03:54:30.200Z,88.95
2022-12-25T03:57:24.580Z,88.97
2022-12-25T04:00:18.645Z,89.03
2022-12-25T04:03:12.756Z,89.05
2022-12-25T04:06:07.257Z,89.09
2022-12-25T04:09:01.175Z,89.22
2022-12-25T04:12:02.022Z,89.33
2022-12-25T04:14:56.494Z,89.22
2022-12-25T04:17:50.638Z,89.20
2022-12-25T04:20:45.700Z,89.23
2022-12-25T04:23:40.013Z,89.28
2022-12-25T04:26:33.811Z,89.31
2022-12-25T04:29:28.260Z,89.32
2022-12-25T04:32:22.694Z,89.33
2022-12-25T04:35:16.608Z,89.30
2022-12-25T04:37:52.863Z,89.74
2022-12-25T04:40:29.183Z,89.57
2022-12-25T04:43:05.496Z,89.45
2022-12-25T04:45:41.759Z,89.43
2022-12-25T04:48:18.047Z,89.38
2022-12-25T04:50:54.489Z,89.38
2022-12-25T04:53:31.261Z,89.46
2022-12-25T04:56:09.060Z,89.56
2022-12-25T04:58:45.920Z,89.65
2022-12-25T05:01:22.359Z,89.66
2022-12-25T05:03:58.720Z,89.69
2022-12-25T05:06:35.283Z,89.70
2022-12-25T05:09:12.545Z,89.69
2022-12-25T05:11:49.098Z,89.66
2022-12-25T05:14:25.468Z,89.59
2022-12-25T05:17:01.825Z,89.53
2022-12-25T05:19:38.114Z,89.50
2022-12-25T05:22:14.634Z,89.52
2022-12-25T05:24:51.027Z,89.50
2022-12-25T05:27:27.602Z,89.43
2022-12-25T05:30:03.793Z,89.37
2022-12-25T05:32:40.075Z,89.26
2022-12-25T05:35:16.808Z,89.21
2022-12-25T05:37:53.054Z,89.18
2022-12-25T05:40:29.286Z,89.25
2022-12-25T05:43:05.822Z,89.34
2022-12-25T05:45:42.090Z,89.44
2022-12-25T05:48:18.898Z,89.54
2022-12-25T05:50:55.087Z,89.63
2022-12-25T05:53:31.480Z,89.74
2022-12-25T05:56:10.652Z,89.81
2022-12-25T05:58:47.028Z,89.84
2022-12-25T06:01:29.557Z,89.85
2022-12-25T06:04:12.241Z,89.90
2022-12-25T06:06:49.263Z,89.98
2022-12-25T06:09:25.472Z,90.11
2022-12-25T06:12:01.791Z,90.25
2022-12-25T06:14:38.669Z,90.32
2022-12-25T06:17:14.901Z,90.38
2022-12-25T06:19:51.410Z,90.43
2022-12-25T06:22:31.434Z,90.50
2022-12-25T06:25:09.684Z,90.52
2022-12-25T06:27:45.999Z,90.54
2022-12-25T06:30:23.131Z,90.57
2022-12-25T06:33:00.137Z,90.62
2022-12-25T06:35:39.710Z,90.66
2022-12-25T06:38:15.981Z,90.68
2022-12-25T06:40:52.380Z,90.71
2022-12-25T06:43:28.622Z,90.73
2022-12-25T06:46:10.314Z,90.74
2022-12-25T06:48:49.819Z,90.71
2022-12-25T06:51:30.347Z,90.71
2022-12-25T06:54:07.276Z,90.71
2022-12-25T06:56:43.521Z,90.70
2022-12-25T06:59:20.122Z,90.69
2022-12-25T07:01:58.729Z,90.70
2022-12-25T07:04:40.668Z,90.69
2022-12-25T07:07:15.877Z,90.68
2022-12-25T07:09:52.154Z,90.62
2022-12-25T07:12:28.936Z,90.59
2022-12-25T07:15:05.729Z,90.55
2022-12-25T07:17:42.116Z,90.52
2022-12-25T07:20:18.727Z,90.51
2022-12-25T07:22:55.189Z,90.44
2022-12-25T07:25:37.092Z,90.40
2022-12-25T07:28:13.855Z,90.31
2022-12-25T07:30:50.461Z,90.23
2022-12-25T07:33:27.148Z,90.13
2022-12-25T07:36:05.431Z,90.06
2022-12-25T07:38:42.462Z,90.01
2022-12-25T07:41:18.881Z,89.95
2022-12-25T07:43:57.479Z,89.87
2022-12-25T07:46:34.156Z,89.80
2022-12-25T07:49:11.078Z,89.71
2022-12-25T07:51:47.848Z,89.62
2022-12-25T07:54:24.500Z,89.51
2022-12-25T07:57:00.852Z,89.35
2022-12-25T07:59:37.272Z,89.25
2022-12-25T08:02:14.256Z,89.22
2022-12-25T08:04:51.047Z,89.11
2022-12-25T08:07:28.127Z,89.07
2022-12-25T08:10:05.290Z,89.04
2022-12-25T08:12:41.612Z,88.83
2022-12-25T08:15:18.571Z,88.56
2022-12-25T08:17:54.843Z,88.38
2022-12-25T08:20:31.260Z,88.23
2022-12-25T08:23:08.217Z,88.07
2022-12-25T08:25:44.597Z,87.86
2022-12-25T08:28:20.925Z,87.65
2022-12-25T08:30:57.467Z,87.56
2022-12-25T08:33:34.066Z,87.35
2022-12-25T08:36:13.946Z,87.10
2022-12-25T08:38:51.569Z,86.76
2022-12-25T08:41:29.518Z,86.57
2022-12-25T08:44:06.359Z,86.36
2022-12-25T08:46:42.875Z,85.91
2022-12-25T08:49:19.527Z,85.46
2022-12-25T08:51:56.236Z,85.27
2022-12-25T08:54:33.826Z,85.12
2022-12-25T08:57:10.201Z,84.78
2022-12-25T08:59:46.519Z,84.47
2022-12-25T09:02:23.031Z,83.99
2022-12-25T09:04:59.657Z,83.73
2022-12-25T09:07:35.900Z,83.36
2022-12-25T09:10:14.624Z,83.00
2022-12-25T09:12:50.884Z,82.92
2022-12-25T09:15:27.387Z,82.70
2022-12-25T09:18:04.048Z,82.40
2022-12-25T09:20:40.525Z,82.32
2022-12-25T09:23:16.824Z,82.11
2022-12-25T09:25:53.047Z,81.91
2022-12-25T09:28:29.620Z,81.75
2022-12-25T09:31:06.743Z,81.67
2022-12-25T09:33:43.184Z,81.18
2022-12-25T09:36:21.479Z,80.95
2022-12-25T09:38:57.946Z,80.75
2022-12-25T09:41:40.792Z,80.42
2022-12-25T09:44:25.373Z,80.29
2022-12-25T09:47:08.261Z,80.42
2022-12-25T09:49:54.526Z,80.15
2022-12-25T09:52:43.672Z,79.54
2022-12-25T09:55:24.404Z,79.27
2022-12-25T09:58:09.993Z,79.23
2022-12-25T10:00:54.223Z,79.09
2022-12-25T10:04:09.637Z,79.29
2022-12-25T10:07:03.192Z,79.27
2022-12-25T10:10:07.786Z,79.36
2022-12-25T10:13:03.005Z,79.53
2022-12-25T10:15:53.248Z,79.15
2022-12-25T10:19:11.765Z,78.81
2022-12-25T10:21:49.860Z,79.14
2022-12-25T10:24:37.833Z,79.15
2022-12-25T10:27:28.937Z,79.07
2022-12-25T10:30:15.716Z,78.88
2022-12-25T10:32:54.062Z,78.62
2022-12-25T10:35:33.073Z,78.33
2022-12-25T10:38:18.378Z,78.18
2022-12-25T10:41:19.112Z,77.98
2022-12-25T10:43:58.947Z,78.10
2022-12-25T10:46:35.602Z,77.82
2022-12-25T10:49:22.291Z,77.57
2022-12-25T10:51:58.770Z,77.51
2022-12-25T10:54:37.764Z,77.70
2022-12-25T10:57:23.138Z,77.36
2022-12-25T11:00:01.892Z,77.06
2022-12-25T11:02:44.092Z,76.89
2022-12-25T11:05:31.374Z,76.76
2022-12-25T11:08:22.288Z,76.51
2022-12-25T11:11:06.818Z,76.33
2022-12-25T11:13:58.489Z,76.24
2022-12-25T11:16:40.191Z,76.43
2022-12-25T11:19:30.088Z,76.21
2022-12-25T11:22:19.029Z,76.27
2022-12-25T11:24:56.566Z,76.34
2022-12-25T11:27:34.055Z,76.02
2022-12-25T11:30:18.254Z,75.74
2022-12-25T11:32:59.577Z,76.22
2022-12-25T11:35:47.820Z,75.89
2022-12-25T11:38:24.828Z,75.58
2022-12-25T11:41:05.943Z,75.63
2022-12-25T11:43:50.823Z,75.61
2022-12-25T11:46:38.681Z,75.51
2022-12-25T11:49:22.365Z,75.74
2022-12-25T11:52:01.551Z,75.31
2022-12-25T11:54:49.195Z,75.11
2022-12-25T11:57:29.186Z,75.04
2022-12-25T12:00:15.663Z,75.09
2022-12-25T12:03:00.430Z,74.97
2022-12-25T12:05:49.299Z,75.00
2022-12-25T12:08:25.868Z,74.88
2022-12-25T12:11:20.721Z,74.72
2022-12-25T12:14:25.315Z,74.62
2022-12-25T12:17:02.568Z,74.63
2022-12-25T12:19:39.276Z,74.56
2022-12-25T12:22:26.599Z,74.53
2022-12-25T12:25:09.488Z,74.55
2022-12-25T12:27:47.098Z,74.65
2022-12-25T12:30:34.792Z,74.54
2022-12-25T12:33:21.962Z,74.53
2022-12-25T12:35:58.830Z,74.70
2022-12-25T12:38:36.482Z,74.50
2022-12-25T12:41:15.443Z,74.42
2022-12-25T12:44:00.608Z,74.47
2022-12-25T12:46:51.475Z,74.36
2022-12-25T12:49:32.379Z,74.27
2022-12-25T12:52:33.020Z,74.28
2022-12-25T12:55:13.772Z,74.24
2022-12-25T12:58:01.934Z,74.23
2022-12-25T13:00:54.508Z,74.17
2022-12-25T13:03:50.452Z,74.15
2022-12-25T13:06:40.905Z,74.15
2022-12-25T13:09:40.521Z,74.13
2022-12-25T13:12:21.023Z,74.17
2022-12-25T13:14:57.499Z,74.22
2022-12-25T13:17:34.074Z,74.27
2022-12-25T13:20:32.414Z,74.25
2022-12-25T13:23:28.363Z,74.23
2022-12-25T13:26:12.848Z,74.20
2022-12-25T13:28:50.663Z,74.19
2022-12-25T13:31:29.636Z,74.26
2022-12-25T13:34:21.165Z,74.24
2022-12-25T13:36:59.479Z,74.26
2022-12-25T13:39:40.590Z,74.33
2022-12-25T13:42:23.713Z,74.35
2022-12-25T13:45:06.169Z,74.64
2022-12-25T13:47:51.424Z,74.91
2022-12-25T13:50:35.296Z,75.20
2022-12-25T13:53:20.332Z,75.37
2022-12-25T13:55:59.598Z,75.64
2022-12-25T13:58:39.525Z,75.87
2022-12-25T14:01:21.910Z,76.21
2022-12-25T14:03:58.778Z,76.52
2022-12-25T14:06:35.966Z,76.79
2022-12-25T14:09:15.704Z,77.03
2022-12-25T14:11:56.056Z,77.25
2022-12-25T14:14:33.176Z,77.36
2022-12-25T14:17:11.319Z,77.54
2022-12-25T14:19:47.873Z,77.60
2022-12-25T14:22:27.138Z,77.79
2022-12-25T14:25:03.580Z,78.08
2022-12-25T14:27:39.873Z,78.30
2022-12-25T14:30:19.950Z,78.58
2022-12-25T14:32:59.636Z,78.78
2022-12-25T14:35:36.251Z,78.95
2022-12-25T14:38:24.587Z,79.33
2022-12-25T14:41:33.718Z,79.66
2022-12-25T14:44:38.874Z,79.92
2022-12-25T14:47:23.878Z,80.36
2022-12-25T14:50:00.626Z,80.60
2022-12-25T14:52:46.644Z,80.90
2022-12-25T14:55:28.875Z,81.22
2022-12-25T14:58:22.021Z,81.47
2022-12-25T15:01:04.332Z,81.64
2022-12-25T15:03:41.885Z,81.94
2022-12-25T15:06:25.980Z,82.17
2022-12-25T15:09:06.578Z,82.33
2022-12-25T15:11:43.421Z,82.56
2022-12-25T15:14:20.325Z,82.82
2022-12-25T15:17:01.462Z,82.91
2022-12-25T15:19:42.511Z,83.10
2022-12-25T15:22:22.961Z,83.24
2022-12-25T15:25:02.485Z,83.50
2022-12-25T15:27:39.272Z,83.62
2022-12-25T15:30:17.950Z,83.71
2022-12-25T15:32:54.467Z,83.92
2022-12-25T15:35:33.378Z,84.12
2022-12-25T15:38:09.649Z,84.30
2022-12-25T15:40:48.374Z,84.45
2022-12-25T15:43:41.407Z,84.53
2022-12-25T15:46:19.424Z,84.67
2022-12-25T15:48:56.105Z,84.87
2022-12-25T15:51:32.977Z,85.13
2022-12-25T15:54:11.275Z,85.34
2022-12-25T15:56:52.767Z,85.47
2022-12-25T15:59:29.441Z,85.59
2022-12-25T16:02:14.702Z,85.65
2022-12-25T16:04:55.169Z,85.75
2022-12-25T16:07:33.789Z,85.89
2022-12-25T16:10:17.747Z,86.00
2022-12-25T16:12:54.095Z,86.19
2022-12-25T16:15:30.559Z,86.38
2022-12-25T16:18:07.723Z,86.56
2022-12-25T16:20:44.208Z,86.77
2022-12-25T16:23:20.528Z,86.97
2022-12-25T16:25:56.949Z,87.26
2022-12-25T16:28:33.403Z,87.62
2022-12-25T16:31:10.290Z,87.84
2022-12-25T16:33:46.652Z,87.64
2022-12-25T16:36:26.906Z,87.84
2022-12-25T16:39:04.764Z,89.08
2022-12-25T16:41:41.181Z,89.58
2022-12-25T16:44:17.796Z,90.17
2022-12-25T16:46:54.460Z,90.69
2022-12-25T16:49:31.121Z,90.87
2022-12-25T16:52:07.934Z,91.21
2022-12-25T16:54:46.510Z,91.32
2022-12-25T16:57:23.058Z,91.25
2022-12-25T17:00:00.182Z,91.21
2022-12-25T17:02:36.924Z,91.22
2022-12-25T17:05:15.232Z,91.31
2022-12-25T17:07:51.898Z,91.32
2022-12-25T17:10:28.368Z,91.32
2022-12-25T17:13:04.603Z,91.29
2022-12-25T17:15:45.260Z,91.29
2022-12-25T17:18:26.765Z,91.24
2022-12-25T17:21:03.139Z,91.24
2022-12-25T17:23:41.249Z,91.21
2022-12-25T17:26:17.692Z,91.18
2022-12-25T17:28:53.930Z,91.14
2022-12-25T17:31:31.066Z,91.15
2022-12-25T17:34:09.752Z,91.14
2022-12-25T17:36:46.247Z,91.07
2022-12-25T17:39:22.722Z,91.01
2022-12-25T17:41:59.629Z,91.02
2022-12-25T17:44:36.351Z,91.02
2022-12-25T17:47:12.853Z,91.02
2022-12-25T17:49:49.324Z,91.02
2022-12-25T17:52:25.829Z,91.00
2022-12-25T17:55:02.656Z,90.96
2022-12-25T17:57:41.201Z,90.92
2022-12-25T18:00:20.830Z,90.98
2022-12-25T18:02:57.990Z,91.21
2022-12-25T18:05:38.149Z,91.29
2022-12-25T18:08:14.613Z,91.38
2022-12-25T18:10:52.409Z,91.52
2022-12-25T18:13:28.787Z,91.57
2022-12-25T18:16:09.763Z,91.61
2022-12-25T18:18:52.170Z,91.65
2022-12-25T18:21:31.214Z,91.68
2022-12-25T18:24:12.346Z,91.80
2022-12-25T18:26:52.223Z,91.87
2022-12-25T18:29:29.358Z,91.95
2022-12-25T18:32:06.286Z,92.03
2022-12-25T18:34:42.734Z,92.10
2022-12-25T18:37:19.201Z,92.13
2022-12-25T18:39:55.721Z,92.19
2022-12-25T18:42:41.070Z,92.22
2022-12-25T18:45:21.053Z,92.25
2022-12-25T18:47:57.473Z,92.33
2022-12-25T18:50:36.183Z,92.32
2022-12-25T18:53:12.643Z,92.28
2022-12-25T18:55:49.118Z,92.27
2022-12-25T18:58:26.337Z,92.27
2022-12-25T19:01:02.800Z,92.32
2022-12-25T19:03:39.499Z,92.35
2022-12-25T19:06:22.744Z,92.36
2022-12-25T19:08:59.787Z,92.41
2022-12-25T19:11:42.087Z,92.42
2022-12-25T19:14:22.431Z,92.40
2022-12-25T19:16:59.185Z,92.49
2022-12-25T19:19:35.589Z,92.46
2022-12-25T19:22:13.189Z,92.48
2022-12-25T19:24:49.704Z,92.45
2022-12-25T19:27:26.077Z,92.39
2022-12-25T19:30:02.550Z,92.51
2022-12-25T19:32:39.073Z,92.43
2022-12-25T19:35:15.835Z,92.35
2022-12-25T19:37:52.361Z,92.38
2022-12-25T19:40:28.930Z,92.22
2022-12-25T19:43:05.610Z,92.05
2022-12-25T19:45:42.101Z,91.94
2022-12-25T19:48:19.157Z,91.83
2022-12-25T19:50:55.766Z,91.76
2022-12-25T19:53:34.007Z,91.70
2022-12-25T19:56:10.964Z,91.65
2022-12-25T19:58:48.184Z,91.62
2022-12-25T20:01:29.695Z,91.59
2022-12-25T20:04:08.116Z,91.57
2022-12-25T20:06:46.086Z,91.57
2022-12-25T20:09:24.473Z,91.54
2022-12-25T20:12:00.874Z,91.54
2022-12-25T20:14:37.345Z,91.53
2022-12-25T20:17:16.045Z,91.47
2022-12-25T20:19:52.860Z,91.41
2022-12-25T20:22:29.617Z,91.36
2022-12-25T20:25:09.270Z,91.31
2022-12-25T20:27:45.916Z,91.27
2022-12-25T20:30:22.696Z,91.25
2022-12-25T20:32:59.071Z,91.25
2022-12-25T20:35:35.535Z,91.24
2022-12-25T20:38:12.113Z,91.25
2022-12-25T20:41:25.078Z,91.27
2022-12-25T20:43:48.080Z,91.25
2022-12-25T20:46:24.662Z,91.24
2022-12-25T20:49:02.268Z,91.24
2022-12-25T20:51:39.238Z,91.23
2022-12-25T20:54:15.480Z,91.19
2022-12-25T20:56:53.157Z,91.19
2022-12-25T20:59:35.223Z,91.20
2022-12-25T21:02:34.569Z,91.23
2022-12-25T21:05:14.200Z,91.29
2022-12-25T21:07:50.570Z,91.42
2022-12-25T21:10:26.971Z,91.46
2022-12-25T21:13:03.444Z,91.44
2022-12-25T21:15:43.898Z,91.46
2022-12-25T21:18:23.304Z,91.57
2022-12-25T21:21:05.821Z,91.58
2022-12-25T21:23:44.132Z,91.64
2022-12-25T21:26:26.087Z,91.63
2022-12-25T21:29:03.693Z,91.62
2022-12-25T21:31:53.887Z,91.64
2022-12-25T21:34:32.308Z,91.65
2022-12-25T21:37:11.016Z,91.65
2022-12-25T21:39:49.937Z,91.62
2022-12-25T21:42:26.460Z,91.60
2022-12-25T21:45:02.880Z,91.62
2022-12-25T21:48:02.294Z,91.57
2022-12-25T21:50:53.591Z,91.51
2022-12-25T21:53:29.942Z,91.49
2022-12-25T21:56:06.872Z,91.47
2022-12-25T21:58:43.290Z,91.43
2022-12-25T22:01:20.044Z,91.45
2022-12-25T22:03:56.791Z,91.52
2022-12-25T22:06:51.027Z,91.53
2022-12-25T22:09:27.905Z,91.56
2022-12-25T22:12:22.599Z,91.59
2022-12-25T22:15:03.012Z,91.62
2022-12-25T22:18:00.791Z,91.63
2022-12-25T22:20:41.863Z,91.66
2022-12-25T22:23:19.593Z,91.67
2022-12-25T22:25:55.997Z,91.69
2022-12-25T22:28:32.495Z,91.67
2022-12-25T22:31:11.456Z,91.71
2022-12-25T22:33:47.711Z,91.71
2022-12-25T22:36:24.356Z,91.72
2022-12-25T22:39:00.833Z,91.70
2022-12-25T22:41:37.502Z,91.71
2022-12-25T22:44:17.536Z,91.71
2022-12-25T22:46:55.043Z,91.74
2022-12-25T22:49:32.442Z,91.75
2022-12-25T22:52:09.943Z,91.79
2022-12-25T22:54:46.593Z,91.79
2022-12-25T22:57:22.817Z,91.78
2022-12-25T22:59:59.438Z,91.73
2022-12-25T23:02:36.371Z,91.72
2022-12-25T23:05:14.032Z,91.69
2022-12-25T23:07:50.574Z,91.64
2022-12-25T23:10:27.965Z,91.59
2022-12-25T23:13:21.734Z,91.55
2022-12-25T23:15:58.146Z,91.49
2022-12-25T23:18:52.374Z,91.44
2022-12-25T23:21:48.287Z,91.37
2022-12-25T23:24:42.575Z,91.34
2022-12-25T23:27:18.924Z,91.30
2022-12-25T23:29:55.281Z,91.23
2022-12-25T23:32:31.750Z,91.18
2022-12-25T23:35:10.170Z,91.14
2022-12-25T23:37:46.773Z,91.06
2022-12-25T23:40:23.636Z,90.97
2022-12-25T23:42:59.906Z,90.81
2022-12-25T23:45:36.228Z,90.67
2022-12-25T23:48:12.926Z,90.62
2022-12-25T23:50:49.282Z,90.50
2022-12-25T23:53:25.636Z,90.40
2022-12-25T23:56:02.665Z,90.27
2022-12-25T23:58:39.065Z,90.17
